Time;durP1;ratioP1;P1;durP2;ratioP2;P2;SDS_P1;SDS_P2;PMS_P1;PMS_P2;Temp;Humidity;BMP_temperature;BMP_pressure;BME280_temperature;BME280_humidity;BME280_pressure;Samples;Min_cycle;Max_cycle;Signal;HPM_P1;HPM_P2
2022/02/17 00:02:25;;;;;;;19.23;3.97;;;11.80;99.90;;;;;;5134561;27;20031;-76
2022/02/17 00:04:51;;;;;;;18.17;3.10;;;11.70;99.90;;;;;;5135207;28;20031;-76
2022/02/17 00:07:16;;;;;;;23.55;3.90;;;11.80;99.90;;;;;;5134617;28;20035;-76
2022/02/17 00:09:42;;;;;;;19.02;2.70;;;11.70;99.90;;;;;;5134977;28;20371;-75
2022/02/17 00:12:11;;;;;;;23.52;3.67;;;11.70;99.90;;;;;;5134853;28;20015;-75
2022/02/17 00:14:36;;;;;;;15.45;4.53;;;11.60;99.90;;;;;;5134116;28;20079;-75
2022/02/17 00:17:02;;;;;;;23.27;4.82;;;11.60;99.90;;;;;;5134768;28;20102;-75
2022/02/17 00:19:27;;;;;;;25.52;4.90;;;11.50;99.90;;;;;;5134891;28;20538;-75
2022/02/17 00:21:53;;;;;;;18.15;4.03;;;11.50;99.90;;;;;;5134542;28;20153;-75
2022/02/17 00:24:19;;;;;;;19.17;3.35;;;11.50;99.90;;;;;;5135265;28;20060;-76
2022/02/17 00:26:45;;;;;;;28.92;4.15;;;11.50;99.90;;;;;;5134489;28;20470;-76
2022/02/17 00:29:11;;;;;;;25.90;4.43;;;11.50;99.90;;;;;;5133640;27;20039;-78
2022/02/17 00:31:38;;;;;;;28.75;4.40;;;11.50;99.90;;;;;;5134778;28;20015;-75
2022/02/17 00:34:04;;;;;;;37.90;6.68;;;11.50;99.90;;;;;;5134070;27;20080;-75
2022/02/17 00:36:30;;;;;;;15.15;3.10;;;11.50;99.90;;;;;;5134485;28;20019;-77
2022/02/17 00:38:56;;;;;;;27.98;5.00;;;11.50;99.90;;;;;;5134045;27;20057;-74
2022/02/17 00:41:22;;;;;;;26.45;4.55;;;11.50;99.90;;;;;;5133450;27;20478;-74
2022/02/17 00:43:48;;;;;;;28.23;6.28;;;11.40;99.90;;;;;;5135198;27;20023;-74
2022/02/17 00:46:13;;;;;;;31.88;4.82;;;11.40;99.90;;;;;;5138164;27;20019;-75
2022/02/17 00:48:39;;;;;;;27.25;4.07;;;11.30;99.90;;;;;;5137085;27;20374;-74
2022/02/17 00:51:05;;;;;;;25.52;4.47;;;11.20;99.90;;;;;;5137551;27;20471;-75
2022/02/17 00:53:31;;;;;;;25.63;5.80;;;11.20;99.90;;;;;;5137816;27;20027;-74
2022/02/17 00:55:56;;;;;;;16.85;3.80;;;11.10;99.90;;;;;;5136735;27;20030;-74
2022/02/17 00:58:22;;;;;;;11.25;2.65;;;10.90;99.90;;;;;;5137261;27;20474;-76
2022/02/17 01:00:48;;;;;;;19.67;3.10;;;10.60;99.90;;;;;;5137975;27;20042;-76
2022/02/17 01:03:13;;;;;;;23.38;4.03;;;10.40;99.90;;;;;;5138175;27;20023;-75
2022/02/17 01:05:39;;;;;;;23.30;4.43;;;10.30;99.90;;;;;;5137937;27;20080;-74
2022/02/17 01:08:08;;;;;;;30.70;5.18;;;10.30;99.90;;;;;;5137406;27;20047;-74
2022/02/17 01:10:33;;;;;;;30.55;4.07;;;10.40;99.90;;;;;;5137419;27;20027;-75
2022/02/17 01:13:00;;;;;;;37.65;6.47;;;10.40;99.90;;;;;;5138204;27;20023;-74
2022/02/17 01:15:26;;;;;;;19.85;4.18;;;10.50;99.90;;;;;;5137546;27;20027;-74
2022/02/17 01:17:51;;;;;;;38.00;4.43;;;10.50;99.90;;;;;;5136970;27;20550;-74
2022/02/17 01:20:17;;;;;;;33.70;5.22;;;10.50;99.90;;;;;;5137571;27;20042;-73
2022/02/17 01:22:45;;;;;;;31.50;4.10;;;10.50;99.90;;;;;;5137527;27;20015;-74
2022/02/17 01:25:15;;;;;;;27.20;4.80;;;10.50;99.90;;;;;;5136804;27;20033;-74
2022/02/17 01:27:42;;;;;;;25.75;3.60;;;10.50;99.90;;;;;;5137199;27;20067;-73
2022/02/17 01:30:08;;;;;;;23.58;4.30;;;10.50;99.90;;;;;;5137132;27;20371;-75
2022/02/17 01:32:34;;;;;;;23.27;4.63;;;10.60;99.90;;;;;;5136262;27;20019;-74
2022/02/17 01:34:59;;;;;;;33.85;4.65;;;10.60;99.90;;;;;;5137357;27;20055;-74
2022/02/17 01:37:25;;;;;;;26.38;3.83;;;10.50;99.90;;;;;;5136826;27;20057;-74
2022/02/17 01:39:53;;;;;;;18.83;5.10;;;10.50;99.90;;;;;;5137236;27;20031;-74
2022/02/17 01:42:19;;;;;;;21.88;3.33;;;10.50;99.90;;;;;;5136765;27;20401;-74
2022/02/17 01:44:46;;;;;;;31.92;5.18;;;10.50;99.90;;;;;;5136407;27;20030;-74
2022/02/17 01:47:14;;;;;;;23.52;3.90;;;10.50;99.90;;;;;;5136297;27;20050;-74
2022/02/17 01:49:41;;;;;;;28.75;4.53;;;10.50;99.90;;;;;;5136803;27;20515;-73
2022/02/17 01:52:08;;;;;;;25.45;3.75;;;10.50;99.90;;;;;;5136477;27;20058;-75
2022/02/17 01:54:35;;;;;;;26.30;6.03;;;10.40;99.90;;;;;;5136766;27;20024;-76
2022/02/17 01:57:04;;;;;;;17.45;3.08;;;10.40;99.90;;;;;;5137010;27;20031;-76
2022/02/17 01:59:30;;;;;;;11.57;3.40;;;10.40;99.90;;;;;;5136831;27;20035;-76
2022/02/17 02:01:55;;;;;;;21.70;3.42;;;10.40;99.90;;;;;;5136895;27;20485;-76
2022/02/17 02:04:21;;;;;;;15.02;3.13;;;10.40;99.90;;;;;;5136665;27;20019;-76
2022/02/17 02:06:47;;;;;;;16.88;3.08;;;10.50;99.90;;;;;;5136806;27;20372;-76
2022/02/17 02:09:16;;;;;;;14.45;3.03;;;10.40;99.90;;;;;;5136985;27;20023;-76
2022/02/17 02:11:42;;;;;;;19.52;4.10;;;10.40;99.90;;;;;;5136596;27;20102;-77
2022/02/17 02:14:15;;;;;;;21.95;4.15;;;10.40;99.90;;;;;;5135404;27;20034;-76
2022/02/17 02:16:42;;;;;;;29.92;3.22;;;10.40;99.90;;;;;;5136682;27;20106;-75
2022/02/17 02:19:08;;;;;;;24.30;5.30;;;10.50;99.90;;;;;;5136477;27;20031;-75
2022/02/17 02:21:33;;;;;;;11.45;3.13;;;10.50;99.90;;;;;;5135770;27;20110;-76
2022/02/17 02:23:59;;;;;;;25.45;3.92;;;10.50;99.90;;;;;;5136314;27;20043;-75
2022/02/17 02:26:27;;;;;;;23.38;4.55;;;10.50;99.90;;;;;;5136383;27;20516;-75
2022/02/17 02:28:53;;;;;;;21.35;4.03;;;10.40;99.90;;;;;;5135605;27;20023;-76
2022/02/17 02:31:19;;;;;;;25.83;4.82;;;10.50;99.90;;;;;;5136551;27;20030;-75
2022/02/17 02:33:45;;;;;;;22.42;3.53;;;10.50;99.90;;;;;;5136004;27;20019;-75
2022/02/17 02:36:10;;;;;;;30.17;4.03;;;10.50;99.90;;;;;;5136333;27;20386;-73
2022/02/17 02:38:36;;;;;;;28.67;4.38;;;10.40;99.90;;;;;;5135201;27;20106;-75
2022/02/17 02:41:01;;;;;;;25.92;4.38;;;10.40;99.90;;;;;;5135539;27;20019;-75
2022/02/17 02:43:27;;;;;;;27.73;5.05;;;10.40;99.90;;;;;;5136265;27;20029;-75
2022/02/17 02:45:52;;;;;;;20.08;3.28;;;10.30;99.90;;;;;;5136189;27;20019;-76
2022/02/17 02:48:19;;;;;;;15.73;2.83;;;10.30;99.90;;;;;;5135269;27;20023;-75
2022/02/17 02:50:45;;;;;;;28.52;3.83;;;10.30;99.90;;;;;;5136121;27;20015;-75
2022/02/17 02:53:15;;;;;;;18.13;4.45;;;10.20;99.90;;;;;;5135646;27;20080;-76
2022/02/17 02:55:44;;;;;;;19.58;3.75;;;10.20;99.90;;;;;;5135460;27;20020;-75
2022/02/17 02:58:11;;;;;;;13.73;3.00;;;10.20;99.90;;;;;;5135369;27;20108;-75
2022/02/17 03:00:38;;;;;;;19.38;3.50;;;10.20;99.90;;;;;;5136280;27;20087;-75
2022/02/17 03:03:03;;;;;;;17.13;3.10;;;10.20;99.90;;;;;;5136196;27;20018;-75
2022/02/17 03:05:29;;;;;;;27.50;3.72;;;10.10;99.90;;;;;;5135265;27;20032;-75
2022/02/17 03:07:55;;;;;;;28.42;6.80;;;10.10;99.90;;;;;;5135116;27;20061;-75
2022/02/17 03:10:21;;;;;;;15.05;2.95;;;10.10;99.90;;;;;;5134988;27;20108;-75
2022/02/17 03:12:47;;;;;;;21.13;3.20;;;10.00;99.90;;;;;;5135503;27;20083;-75
2022/02/17 03:15:13;;;;;;;18.40;3.63;;;10.10;99.90;;;;;;5135589;27;20029;-74
2022/02/17 03:17:41;;;;;;;23.92;4.47;;;10.00;99.90;;;;;;5134468;27;20394;-75
2022/02/17 03:20:10;;;;;;;17.50;2.97;;;10.00;99.90;;;;;;5134951;27;20038;-75
2022/02/17 03:22:37;;;;;;;7.10;2.28;;;10.00;99.90;;;;;;5135612;27;20106;-75
2022/02/17 03:25:05;;;;;;;20.38;2.67;;;10.00;99.90;;;;;;5135471;27;20023;-75
2022/02/17 03:27:30;;;;;;;26.00;5.00;;;10.10;99.90;;;;;;5143457;27;20061;-75
2022/02/17 03:29:56;;;;;;;22.77;3.67;;;10.00;99.90;;;;;;5139951;27;20027;-75
2022/02/17 03:32:21;;;;;;;25.00;4.50;;;10.00;99.90;;;;;;5135294;27;20019;-75
2022/02/17 03:34:47;;;;;;;30.00;4.18;;;10.00;99.90;;;;;;5134981;27;20019;-75
2022/02/17 03:37:12;;;;;;;21.20;3.50;;;10.00;99.90;;;;;;5134639;27;20027;-74
2022/02/17 03:39:41;;;;;;;18.00;3.65;;;10.00;99.90;;;;;;5135153;27;20031;-75
2022/02/17 03:42:07;;;;;;;21.00;3.47;;;10.00;99.90;;;;;;5137324;28;20019;-75
2022/02/17 03:44:33;;;;;;;20.75;4.30;;;10.00;99.90;;;;;;5134324;28;20019;-74
2022/02/17 03:46:59;;;;;;;15.90;3.50;;;10.00;99.90;;;;;;5135151;27;20023;-75
2022/02/17 03:49:24;;;;;;;20.25;4.22;;;10.00;99.90;;;;;;5135135;27;20046;-75
2022/02/17 03:51:51;;;;;;;17.95;3.30;;;10.00;99.90;;;;;;5134540;28;20023;-75
2022/02/17 03:54:16;;;;;;;18.65;3.88;;;10.00;99.90;;;;;;5134998;27;20019;-74
2022/02/17 03:56:42;;;;;;;23.83;4.47;;;10.00;99.90;;;;;;5135061;27;20370;-75
2022/02/17 03:59:13;;;;;;;29.02;4.55;;;10.00;99.90;;;;;;5134051;27;20032;-75
2022/02/17 04:01:40;;;;;;;32.53;4.40;;;10.00;99.90;;;;;;5134689;28;20015;-75
2022/02/17 04:04:10;;;;;;;24.25;4.10;;;10.00;99.90;;;;;;5134442;27;20031;-75
2022/02/17 04:06:36;;;;;;;30.02;4.68;;;10.40;99.90;;;;;;5134853;27;20376;-76
2022/02/17 04:09:03;;;;;;;22.40;5.05;;;10.00;99.90;;;;;;5134745;28;20023;-76
2022/02/17 04:11:29;;;;;;;30.20;4.22;;;10.00;99.90;;;;;;5134524;28;20074;-76
2022/02/17 04:13:54;;;;;;;20.80;3.58;;;10.00;99.90;;;;;;5134165;27;20072;-75
2022/02/17 04:16:21;;;;;;;33.15;4.80;;;10.00;99.90;;;;;;5135985;28;20057;-74
2022/02/17 04:18:48;;;;;;;30.38;6.20;;;9.90;99.90;;;;;;5135732;27;20098;-75
2022/02/17 04:21:15;;;;;;;21.40;3.90;;;9.90;99.90;;;;;;5137985;27;20023;-76
2022/02/17 04:23:45;;;;;;;24.38;5.03;;;9.90;99.90;;;;;;5138869;27;20059;-77
2022/02/17 04:26:12;;;;;;;23.83;4.35;;;9.90;99.90;;;;;;5137698;27;20038;-76
2022/02/17 04:28:38;;;;;;;32.75;5.65;;;9.90;99.90;;;;;;5138245;27;20035;-75
2022/02/17 04:31:06;;;;;;;33.15;5.15;;;9.90;99.90;;;;;;5138127;27;20111;-76
2022/02/17 04:33:35;;;;;;;40.13;5.68;;;9.90;99.90;;;;;;5138157;27;20109;-75
2022/02/17 04:36:02;;;;;;;37.10;5.20;;;9.90;99.90;;;;;;5138273;27;20031;-76
2022/02/17 04:38:28;;;;;;;30.90;6.28;;;9.90;99.90;;;;;;5139200;27;20382;-76
2022/02/17 04:43:38;;;;;;;38.45;6.60;;;9.80;99.90;;;;;;5138190;27;20027;-75
2022/02/17 04:46:04;;;;;;;28.05;6.75;;;9.80;99.90;;;;;;5138366;27;20103;-75
2022/02/17 04:48:31;;;;;;;25.65;4.57;;;9.80;99.90;;;;;;5136962;27;20045;-75
2022/02/17 04:50:56;;;;;;;30.88;6.13;;;9.80;99.90;;;;;;5137772;27;20027;-75
2022/02/17 04:53:23;;;;;;;16.02;4.10;;;9.80;99.90;;;;;;5138345;27;20019;-75
2022/02/17 04:55:48;;;;;;;34.45;5.22;;;9.80;99.90;;;;;;5136801;27;20058;-75
2022/02/17 04:58:14;;;;;;;31.73;5.50;;;9.80;99.90;;;;;;5137234;27;20027;-76
2022/02/17 05:00:39;;;;;;;28.23;3.83;;;9.80;99.90;;;;;;5137383;27;20482;-75
2022/02/17 05:03:05;;;;;;;34.30;4.68;;;9.80;99.90;;;;;;5137204;27;20023;-76
2022/02/17 05:05:31;;;;;;;28.55;4.88;;;9.80;99.90;;;;;;5137841;27;20494;-76
2022/02/17 05:07:56;;;;;;;40.33;5.18;;;9.80;99.90;;;;;;5138063;27;20035;-76
2022/02/17 05:10:22;;;;;;;14.98;3.80;;;9.80;99.90;;;;;;5137103;27;20371;-76
2022/02/17 05:12:47;;;;;;;34.83;6.22;;;9.80;99.90;;;;;;5137117;27;20385;-76
2022/02/17 05:15:13;;;;;;;34.65;6.63;;;9.80;99.90;;;;;;5138140;27;20015;-76
2022/02/17 05:17:38;;;;;;;30.83;4.15;;;9.90;99.90;;;;;;5137044;27;20505;-75
2022/02/17 05:20:05;;;;;;;35.47;6.35;;;9.90;99.90;;;;;;5138002;27;20470;-75
2022/02/17 05:22:31;;;;;;;42.90;7.05;;;9.90;99.90;;;;;;5137350;27;20023;-75
2022/02/17 05:24:57;;;;;;;22.92;4.63;;;9.90;99.90;;;;;;5137976;27;20046;-75
2022/02/17 05:27:23;;;;;;;27.30;4.57;;;9.90;99.90;;;;;;5137323;27;20066;-75
2022/02/17 05:29:48;;;;;;;27.83;4.82;;;9.90;99.90;;;;;;5135399;27;20034;-76
2022/02/17 05:32:14;;;;;;;32.30;4.60;;;9.90;99.90;;;;;;5137235;27;20038;-75
2022/02/17 05:34:39;;;;;;;29.70;4.30;;;9.90;99.90;;;;;;5137617;27;20023;-75
2022/02/17 05:37:05;;;;;;;29.60;4.75;;;9.90;99.90;;;;;;5135705;27;20027;-75
2022/02/17 05:39:31;;;;;;;25.80;3.63;;;9.90;99.90;;;;;;5136546;27;20035;-75
2022/02/17 05:41:56;;;;;;;24.02;3.97;;;9.80;99.90;;;;;;5136569;27;20027;-76
2022/02/17 05:44:25;;;;;;;33.08;4.43;;;9.80;99.90;;;;;;5135884;27;20045;-74
2022/02/17 05:46:50;;;;;;;20.83;3.95;;;9.80;99.90;;;;;;5135983;27;20083;-75
2022/02/17 05:49:16;;;;;;;31.50;5.43;;;9.80;99.90;;;;;;5136742;27;20413;-75
2022/02/17 05:51:41;;;;;;;23.60;4.00;;;9.70;99.90;;;;;;5135872;27;20455;-75
2022/02/17 05:54:10;;;;;;;17.10;3.80;;;9.70;99.90;;;;;;5135979;27;20403;-75
2022/02/17 05:56:35;;;;;;;25.77;4.68;;;9.60;99.90;;;;;;5136724;27;20447;-75
2022/02/17 05:59:01;;;;;;;29.77;3.45;;;9.60;99.90;;;;;;5135387;27;20038;-75
2022/02/17 06:01:26;;;;;;;11.82;2.08;;;9.50;99.90;;;;;;5136638;27;20027;-75
2022/02/17 06:03:52;;;;;;;26.83;4.68;;;9.50;99.90;;;;;;5136662;27;20417;-75
2022/02/17 06:06:17;;;;;;;24.17;6.00;;;9.50;99.90;;;;;;5136595;27;20086;-75
2022/02/17 06:08:43;;;;;;;12.82;2.65;;;9.40;99.90;;;;;;5136814;27;20034;-75
2022/02/17 06:11:08;;;;;;;16.85;3.40;;;9.40;99.90;;;;;;5136065;27;20023;-75
2022/02/17 06:13:34;;;;;;;16.33;2.90;;;9.30;99.90;;;;;;5135285;27;20378;-75
2022/02/17 06:16:00;;;;;;;13.80;2.33;;;9.30;99.90;;;;;;5136332;27;20026;-74
2022/02/17 06:18:25;;;;;;;22.20;3.47;;;9.30;99.90;;;;;;5139117;27;20478;-74
2022/02/17 06:20:51;;;;;;;15.35;2.60;;;9.30;99.90;;;;;;5135265;27;20072;-74
2022/02/17 06:23:16;;;;;;;22.83;4.13;;;9.20;99.90;;;;;;5135941;27;20026;-74
2022/02/17 06:25:42;;;;;;;18.45;4.10;;;9.20;99.90;;;;;;5135490;27;20019;-73
2022/02/17 06:28:08;;;;;;;12.65;1.98;;;9.20;99.90;;;;;;5136280;27;20026;-74
2022/02/17 06:30:33;;;;;;;11.02;3.15;;;9.20;99.90;;;;;;5136728;27;20029;-74
2022/02/17 06:32:59;;;;;;;15.27;2.50;;;9.20;99.90;;;;;;5135479;27;20035;-75
2022/02/17 06:35:29;;;;;;;17.15;3.70;;;9.20;99.90;;;;;;5136351;27;20023;-75
2022/02/17 06:37:55;;;;;;;22.73;3.97;;;9.20;99.90;;;;;;5135914;27;20386;-76
2022/02/17 06:40:21;;;;;;;11.40;2.63;;;9.10;99.90;;;;;;5135766;27;20073;-74
2022/02/17 06:42:47;;;;;;;12.50;2.55;;;9.10;99.90;;;;;;5135311;27;20046;-73
2022/02/17 06:45:13;;;;;;;29.70;2.97;;;9.10;99.90;;;;;;5136452;27;20019;-75
2022/02/17 06:47:39;;;;;;;22.48;3.28;;;9.10;99.90;;;;;;5135457;27;20513;-75
2022/02/17 06:50:06;;;;;;;10.82;1.55;;;9.10;99.90;;;;;;5136337;27;20019;-74
2022/02/17 06:52:32;;;;;;;13.10;2.42;;;9.10;99.90;;;;;;5135403;27;20147;-74
2022/02/17 06:55:02;;;;;;;11.10;2.75;;;9.10;99.90;;;;;;5134269;27;20027;-75
2022/02/17 06:57:27;;;;;;;7.57;1.35;;;9.10;99.90;;;;;;5135342;27;20033;-76
2022/02/17 06:59:53;;;;;;;7.28;1.23;;;9.10;99.90;;;;;;5135380;27;20381;-76
2022/02/17 07:02:23;;;;;;;6.22;1.73;;;9.10;99.90;;;;;;5134711;27;20019;-75
2022/02/17 07:04:49;;;;;;;6.70;1.60;;;9.10;99.90;;;;;;5135109;27;20023;-77
2022/02/17 07:07:17;;;;;;;12.68;2.28;;;9.10;99.90;;;;;;5135005;27;20051;-74
2022/02/17 07:09:43;;;;;;;16.52;2.78;;;9.00;99.90;;;;;;5134491;27;20494;-75
2022/02/17 07:12:09;;;;;;;14.23;2.75;;;9.00;99.90;;;;;;5135307;27;20045;-74
2022/02/17 07:14:35;;;;;;;15.55;2.58;;;9.00;99.90;;;;;;5135810;27;20019;-74
2022/02/17 07:17:00;;;;;;;11.88;2.03;;;9.00;99.90;;;;;;5135011;27;20108;-75
2022/02/17 07:19:26;;;;;;;28.30;3.50;;;8.90;99.90;;;;;;5134799;27;20031;-75
2022/02/17 07:21:52;;;;;;;22.10;3.45;;;9.00;99.90;;;;;;5134872;27;20049;-73
2022/02/17 07:24:19;;;;;;;11.70;1.95;;;9.00;99.90;;;;;;5134045;27;20027;-74
2022/02/17 07:26:45;;;;;;;10.35;1.92;;;8.90;99.90;;;;;;5135041;27;20022;-74
2022/02/17 07:29:12;;;;;;;13.82;3.13;;;8.90;99.90;;;;;;5134698;27;20103;-74
2022/02/17 07:31:37;;;;;;;20.73;2.60;;;8.80;99.90;;;;;;5135141;27;20031;-73
2022/02/17 07:34:03;;;;;;;10.88;1.33;;;8.80;99.90;;;;;;5116557;27;20027;-76
2022/02/17 07:36:29;;;;;;;10.45;2.47;;;8.80;99.90;;;;;;5133877;27;20019;-75
2022/02/17 07:38:55;;;;;;;15.10;2.20;;;8.80;99.90;;;;;;5134724;27;20031;-75
2022/02/17 07:41:21;;;;;;;10.85;3.40;;;8.80;99.90;;;;;;5135099;27;20019;-75
2022/02/17 07:43:46;;;;;;;8.80;2.17;;;8.70;99.90;;;;;;5134253;27;20071;-75
2022/02/17 07:46:12;;;;;;;13.43;2.88;;;8.70;99.90;;;;;;5134663;27;20424;-75
2022/02/17 07:48:39;;;;;;;9.07;1.48;;;8.60;99.90;;;;;;5134085;27;20154;-74
2022/02/17 07:51:05;;;;;;;8.27;1.55;;;8.70;99.90;;;;;;5133833;27;20161;-74
2022/02/17 07:53:31;;;;;;;9.55;1.45;;;8.70;99.90;;;;;;5136163;27;20055;-74
2022/02/17 07:55:57;;;;;;;8.10;2.10;;;8.70;99.90;;;;;;5140828;27;20023;-74
2022/02/17 07:58:23;;;;;;;13.38;1.98;;;8.70;99.90;;;;;;5139418;27;20030;-76
2022/02/17 08:00:48;;;;;;;12.38;2.45;;;8.80;99.90;;;;;;5140713;27;20471;-73
2022/02/17 08:03:14;;;;;;;13.63;2.20;;;8.80;99.90;;;;;;5140033;27;20025;-75
2022/02/17 08:05:40;;;;;;;21.67;3.25;;;8.90;99.90;;;;;;5130729;27;20030;-74
2022/02/17 08:08:07;;;;;;;25.88;3.97;;;8.90;99.90;;;;;;5133577;27;20043;-75
2022/02/17 08:10:35;;;;;;;7.38;2.40;;;8.90;99.90;;;;;;5129654;27;20027;-74
2022/02/17 08:13:05;;;;;;;10.07;1.83;;;8.90;99.90;;;;;;5137100;27;20034;-75
2022/02/17 08:15:30;;;;;;;8.30;1.70;;;8.90;99.90;;;;;;5132186;27;20251;-75
2022/02/17 08:17:57;;;;;;;8.50;1.38;;;8.90;99.90;;;;;;5130285;27;20027;-76
2022/02/17 08:20:25;;;;;;;6.80;1.10;;;9.00;99.90;;;;;;5129872;27;20036;-76
2022/02/17 08:22:56;;;;;;;5.90;1.08;;;8.90;99.90;;;;;;5131479;27;20053;-76
2022/02/17 08:25:23;;;;;;;10.02;1.23;;;8.90;99.90;;;;;;5126556;27;20028;-75
2022/02/17 08:27:49;;;;;;;4.28;1.48;;;8.90;99.90;;;;;;5118371;28;20027;-75
2022/02/17 08:30:16;;;;;;;10.35;2.53;;;8.90;99.90;;;;;;5127801;27;20426;-77
2022/02/17 08:32:42;;;;;;;3.17;1.23;;;9.00;99.90;;;;;;5123668;27;20069;-77
2022/02/17 08:35:11;;;;;;;5.30;2.00;;;9.00;99.90;;;;;;5134679;27;20031;-76
2022/02/17 08:37:38;;;;;;;8.48;1.73;;;9.00;99.90;;;;;;5120568;27;20598;-76
2022/02/17 08:40:06;;;;;;;22.63;2.22;;;9.00;99.90;;;;;;5122922;27;20038;-75
2022/02/17 08:42:31;;;;;;;14.63;2.03;;;9.10;99.90;;;;;;5138878;27;20019;-76
2022/02/17 08:44:57;;;;;;;10.02;1.95;;;9.00;99.90;;;;;;5138021;27;20461;-76
2022/02/17 08:47:22;;;;;;;13.82;2.13;;;9.00;99.90;;;;;;5129803;27;20038;-76
2022/02/17 08:49:48;;;;;;;14.77;2.78;;;8.90;99.90;;;;;;5123297;27;20059;-76
2022/02/17 08:52:14;;;;;;;10.10;1.92;;;9.00;99.90;;;;;;5126105;27;20027;-75
2022/02/17 08:54:40;;;;;;;7.05;1.42;;;9.10;99.90;;;;;;5137684;27;20030;-76
2022/02/17 08:57:06;;;;;;;8.95;2.35;;;9.10;99.90;;;;;;5138323;27;20105;-76
2022/02/17 08:59:31;;;;;;;9.70;1.52;;;9.10;99.90;;;;;;5137660;27;20038;-76
2022/02/17 09:01:57;;;;;;;17.83;2.55;;;9.10;99.90;;;;;;5136481;27;20045;-75
2022/02/17 09:04:23;;;;;;;12.70;2.13;;;9.10;99.90;;;;;;5136748;27;20065;-76
2022/02/17 09:06:49;;;;;;;14.75;3.13;;;9.10;99.90;;;;;;5136393;27;20088;-76
2022/02/17 09:09:17;;;;;;;11.60;2.65;;;9.10;99.90;;;;;;5135993;27;20039;-76
2022/02/17 09:11:43;;;;;;;7.30;1.75;;;9.10;99.90;;;;;;5136813;27;20030;-76
2022/02/17 09:14:09;;;;;;;13.23;1.45;;;9.20;99.90;;;;;;5136904;27;20023;-76
2022/02/17 09:16:36;;;;;;;17.77;2.80;;;9.20;99.90;;;;;;5136300;27;20031;-75
2022/02/17 09:19:04;;;;;;;13.68;1.77;;;9.30;99.90;;;;;;5136121;27;20035;-75
2022/02/17 09:21:30;;;;;;;6.13;1.48;;;9.30;99.90;;;;;;5125923;27;20418;-74
2022/02/17 09:23:56;;;;;;;9.43;1.92;;;9.40;99.90;;;;;;5114980;27;20027;-73
2022/02/17 09:26:22;;;;;;;14.45;2.25;;;9.40;99.90;;;;;;5115245;27;20027;-74
2022/02/17 09:28:48;;;;;;;14.30;2.63;;;9.30;99.90;;;;;;5129522;27;20027;-76
2022/02/17 09:31:22;;;;;;;13.30;1.58;;;9.40;99.90;;;;;;5116120;27;20032;-76
2022/02/17 09:33:49;;;;;;;19.60;2.65;;;9.40;99.90;;;;;;5121324;27;20105;-75
2022/02/17 09:36:15;;;;;;;10.40;1.98;;;9.40;99.90;;;;;;5118652;27;20046;-75
2022/02/17 09:38:40;;;;;;;7.88;1.25;;;9.40;99.90;;;;;;5120557;27;20115;-75
2022/02/17 09:41:08;;;;;;;6.85;1.63;;;9.50;99.90;;;;;;5115554;28;20034;-75
2022/02/17 09:43:35;;;;;;;9.18;1.63;;;9.50;99.90;;;;;;5121607;27;20102;-74
2022/02/17 09:46:01;;;;;;;11.85;1.70;;;9.40;99.90;;;;;;5125346;27;20095;-74
2022/02/17 09:48:28;;;;;;;8.70;1.48;;;9.50;99.90;;;;;;5136203;27;20603;-75
2022/02/17 09:50:54;;;;;;;10.27;1.35;;;9.20;99.90;;;;;;5117159;27;20036;-74
2022/02/17 09:53:19;;;;;;;10.57;2.47;;;9.60;99.90;;;;;;5117494;27;20375;-74
2022/02/17 09:55:45;;;;;;;14.13;1.90;;;9.60;99.90;;;;;;5118589;27;20019;-73
2022/02/17 09:58:11;;;;;;;8.23;1.30;;;9.60;99.90;;;;;;5115910;27;20114;-73
2022/02/17 10:00:37;;;;;;;14.23;2.60;;;9.50;99.90;;;;;;5132374;27;20046;-74
2022/02/17 10:03:29;;;;;;;10.90;2.05;;;9.60;99.90;;;;;;5125501;27;20102;-73
2022/02/17 10:06:09;;;;;;;8.70;2.30;;;9.60;99.90;;;;;;5116010;27;20060;-73
2022/02/17 10:08:36;;;;;;;12.75;2.72;;;9.60;99.90;;;;;;5124485;27;20498;-73
2022/02/17 10:11:03;;;;;;;13.30;1.75;;;9.70;99.90;;;;;;5126901;27;20038;-73
2022/02/17 10:13:29;;;;;;;17.65;2.67;;;9.70;99.90;;;;;;5135460;27;20059;-74
2022/02/17 10:15:58;;;;;;;9.35;1.63;;;9.70;99.90;;;;;;5127648;27;20079;-73
2022/02/17 10:18:27;;;;;;;8.77;1.55;;;9.80;99.90;;;;;;5134994;27;20102;-73
2022/02/17 10:21:03;;;;;;;7.93;1.35;;;9.70;99.90;;;;;;5127215;27;20035;-73
2022/02/17 10:23:42;;;;;;;6.68;1.33;;;9.80;99.90;;;;;;5132177;27;20504;-72
2022/02/17 10:26:15;;;;;;;7.47;1.27;;;9.80;99.90;;;;;;5137536;27;20043;-73
2022/02/17 10:28:42;;;;;;;11.07;1.75;;;9.80;99.90;;;;;;5123224;27;20055;-74
2022/02/17 10:31:21;;;;;;;12.57;1.17;;;9.70;99.90;;;;;;5121998;27;20043;-74
2022/02/17 10:33:52;;;;;;;8.45;1.77;;;9.80;99.90;;;;;;5117145;27;20031;-73
2022/02/17 10:36:30;;;;;;;7.15;1.60;;;9.70;99.90;;;;;;5119480;27;20113;-73
2022/02/17 10:39:10;;;;;;;6.50;1.23;;;9.70;99.90;;;;;;5121760;27;20035;-72
2022/02/17 10:41:50;;;;;;;11.57;1.77;;;9.80;99.90;;;;;;5119615;27;20110;-74
2022/02/17 10:44:18;;;;;;;4.68;1.35;;;9.80;99.90;;;;;;5119434;27;20027;-74
2022/02/17 10:46:44;;;;;;;7.85;1.63;;;9.90;99.90;;;;;;5117951;27;20036;-73
2022/02/17 10:49:18;;;;;;;8.20;1.13;;;9.90;99.90;;;;;;5122541;27;20050;-74
2022/02/17 10:51:45;;;;;;;13.75;1.58;;;9.90;99.90;;;;;;5120426;27;20049;-73
2022/02/17 10:54:11;;;;;;;5.72;1.27;;;9.90;99.90;;;;;;5121784;27;20035;-75
2022/02/17 10:56:40;;;;;;;12.25;1.52;;;10.00;99.90;;;;;;5118023;27;20035;-74
2022/02/17 11:00:00;;;;;;;10.95;1.63;;;10.10;99.90;;;;;;5123834;27;20042;-74
2022/02/17 11:01:57;;;;;;;;;;;10.10;99.90;;;;;;5119929;27;20049;-75
2022/02/17 11:04:24;;;;;;;4.03;1.13;;;10.20;99.90;;;;;;5120588;27;19926;-74
2022/02/17 11:06:51;;;;;;;6.22;1.13;;;10.20;99.90;;;;;;5120830;27;20039;-74
2022/02/17 11:09:20;;;;;;;16.77;4.13;;;10.20;99.90;;;;;;5117158;27;20034;-74
2022/02/17 11:11:54;;;;;;;12.25;2.17;;;10.30;99.90;;;;;;5119753;27;20490;-73
2022/02/17 11:14:35;;;;;;;12.27;1.45;;;10.30;99.90;;;;;;5121713;27;20084;-74
2022/02/17 11:17:02;;;;;;;10.98;2.08;;;10.30;99.90;;;;;;5120885;27;20185;-73
2022/02/17 11:19:27;;;;;;;13.68;2.28;;;10.30;99.90;;;;;;5121421;27;20588;-73
2022/02/17 11:21:53;;;;;;;8.30;1.77;;;10.40;99.90;;;;;;5120315;27;20047;-73
2022/02/17 11:24:18;;;;;;;9.80;2.08;;;10.40;99.90;;;;;;5114963;28;20032;-73
2022/02/17 11:26:44;;;;;;;13.25;1.67;;;10.40;99.90;;;;;;5139262;27;20027;-73
2022/02/17 11:29:25;;;;;;;15.55;1.83;;;10.40;99.90;;;;;;5142919;27;20023;-74
2022/02/17 11:31:58;;;;;;;16.52;1.75;;;10.30;99.90;;;;;;5156067;27;20546;-74
2022/02/17 11:34:56;;;;;;;11.27;2.85;;;10.20;99.90;;;;;;5155785;27;20029;-73
2022/02/17 11:37:22;;;;;;;5.78;1.35;;;10.30;99.90;;;;;;5135910;27;20035;-73
2022/02/17 11:40:08;;;;;;;6.93;3.38;;;11.00;99.90;;;;;;5134509;27;20035;-72
2022/02/17 11:42:43;;;;;;;9.25;2.03;;;10.20;99.90;;;;;;5144100;27;20031;-74
2022/02/17 11:45:20;;;;;;;13.40;1.83;;;10.20;99.90;;;;;;5135010;27;20027;-73
2022/02/17 11:48:09;;;;;;;7.90;1.40;;;10.30;99.90;;;;;;5151571;27;20023;-72
2022/02/17 11:50:38;;;;;;;8.05;1.50;;;10.30;99.90;;;;;;5141732;27;20020;-73
2022/02/17 11:53:24;;;;;;;13.13;2.03;;;10.40;99.90;;;;;;5113232;28;20023;-72
2022/02/17 11:55:51;;;;;;;9.00;1.60;;;10.50;99.90;;;;;;5128919;28;20031;-73
2022/02/17 11:58:39;;;;;;;10.73;2.72;;;10.60;99.90;;;;;;5133950;27;20034;-73
2022/02/17 12:01:25;;;;;;;8.70;1.95;;;10.60;99.90;;;;;;5135281;27;20047;-73
2022/02/17 12:04:12;;;;;;;7.38;1.23;;;10.60;99.90;;;;;;5106860;27;20492;-73
2022/02/17 12:06:45;;;;;;;9.55;1.80;;;10.40;99.90;;;;;;5114117;28;20498;-72
2022/02/17 12:09:44;;;;;;;11.57;1.77;;;10.40;99.90;;;;;;5114857;28;20058;-73
2022/02/17 12:12:13;;;;;;;10.55;1.48;;;10.20;99.90;;;;;;5113860;28;20053;-73
2022/02/17 12:14:49;;;;;;;6.85;1.67;;;10.30;99.90;;;;;;5124602;28;20047;-74
2022/02/17 12:17:16;;;;;;;12.15;1.85;;;10.50;99.90;;;;;;5133330;28;20371;-74
2022/02/17 12:19:42;;;;;;;5.43;1.17;;;10.50;99.90;;;;;;5134498;28;20038;-73
2022/02/17 12:22:13;;;;;;;12.15;1.90;;;10.50;99.90;;;;;;5134515;28;20044;-74
2022/02/17 12:24:42;;;;;;;7.65;2.03;;;10.50;99.90;;;;;;5134576;28;20117;-73
2022/02/17 12:27:12;;;;;;;17.00;2.40;;;10.40;99.90;;;;;;5130333;28;20023;-73
2022/02/17 12:29:42;;;;;;;8.80;1.93;;;10.40;99.90;;;;;;5131219;28;20034;-74
2022/02/17 12:32:15;;;;;;;8.88;1.52;;;10.30;99.90;;;;;;5119660;28;20595;-74
2022/02/17 12:34:41;;;;;;;12.48;2.53;;;10.40;99.90;;;;;;5134754;28;20027;-74
2022/02/17 12:37:21;;;;;;;20.40;3.47;;;10.60;99.90;;;;;;5134415;28;20020;-73
2022/02/17 12:39:51;;;;;;;10.40;2.45;;;10.70;99.90;;;;;;5134927;27;20420;-72
2022/02/17 12:42:18;;;;;;;24.50;2.15;;;10.90;99.90;;;;;;5125270;27;20032;-73
2022/02/17 12:44:46;;;;;;;12.50;2.40;;;11.00;99.90;;;;;;5116781;28;20031;-74
2022/02/17 12:47:12;;;;;;;16.10;2.65;;;11.00;99.90;;;;;;5117153;28;20069;-74
2022/02/17 12:49:38;;;;;;;4.95;1.23;;;11.10;99.90;;;;;;5117195;28;20057;-73